Aviation Digital Data Service (ADDS)

Output produced by METARs form (0342 UTC 20 December 2014)
found at http://aviationweather.gov/adds/metars/
 
KPHX 200243Z 2003/2024 27005KT P6SM BKN200 
     FM200600 11004KT P6SM BKN200 
     FM202100 28004KT P6SM OVC200